Terminal Aerodrome Forecast
Issued by NWS

Home | Current Version | Previous Version | Text Only | Print | Product List | Glossary On
Versions: 1 2 3 4 5 6 7 8 9 10 11 12 13 14 15 16 17 18 19 20 21 22 23 24 25 26 27 28 29 30
000
FTUS41 KBOX 031730
TAFHYA
TAF
KHYA 031730Z 0318/0418 22005KT P6SM SCT150
     FM032100 20007KT P6SM BKN100
     FM040000 18008KT 1SM -SN OVC060
     FM040300 19012KT 1SM -SNPL OVC010
     FM040500 20013KT 1SM -FZRA OVC010
     FM040700 21013KT 5SM -RA OVC008
     FM041100 25012KT P6SM OVC008=

USA.gov is the U.S. government's official web portal to all federal, state and local government web resources and services.